Jackson, South Carolina
Current Conditions -  °F | °C
As of 1:53 PM on Sunday 21 Dec 2014 (Local Time) from KAGS Reporting Station
Broken Clouds Broken Clouds  
Wind Chill: 56°   Ceiling: 5500
Heat Index: 56°   Visibility: 10mi
Dew Point: 41°   Wind: 9mph
Humidity: 57%   Direction: 100°E
Pressure: 30.15"   Gusts: NA
Location:  33.33°N, 81.79°W
Report Text: KAGS 211853Z 10008KT 10SM BKN055 13/05 A3015 RMK AO2 SLP209 T01330050
Loading
Personal Weather Stations






























Interactive Weather Map New forecast layout! Learn more

10-Day Weather Forecast

Advertisements
Track Severe Weather on mobile